Spokane, WA

7:22 PM PDT on August 03, 2015 (GMT -0700)
In town | | Change Station
CLOSE
Current Station
Personal Weather Station
Location: Medical Lake, WA
Elevation: 2421 ft
Nearby Weather Stations

Elev 2421 ft 47.58 °N, 117.69 °W | Updated 33 seconds ago

Mostly Cloudy
Mostly Cloudy
80.4 °F
Feels Like 79 °F
N
5.8
Wind Variable Wind from NNW
Gusts 6.3 mph

Today
High -- | Low -- °F
--% Chance of Precip.
Yesterday
High -- | Low -- °F
Precip. -- in
5:30 AM 8:22 PM
Waning Gibbous, 82% visible
Pressure 29.82 in
Visibility 10.0 miles
Clouds Mostly Cloudy 11000 ft
Heat Index 79 °F
Dew Point 46 °F
Humidity 30%
Rainfall 0.00 in
Snow Depth Not available.
UV 0 out of 12
Pollen 6.60 out of 12
Air Quality Not available.
Flu Activity Not available.
METAR KSKA 040158Z AUTO 26014KT 10SM BKN110 27/07 A2986 RMK AO2 PK WND 27026/21 SLP098 T02740066

More Conditions Fewer Conditions

Pressure 29.82 in
Visibility 10.0 miles
Clouds Mostly Cloudy 11000 ft
Heat Index 79 °F
Dew Point 46 °F
Humidity 30%
Rainfall 0.00 in
Snow Depth Not available.
UV 0 out of 12
Pollen 6.60 out of 12
Air Quality Not available.
Flu Activity Not available.
METAR KSKA 040158Z AUTO 26014KT 10SM BKN110 27/07 A2986 RMK AO2 PK WND 27026/21 SLP098 T02740066

More Conditions Fewer Conditions

10-Day Weather Forecast

×

Almanac

Astronomy

Aug. 03, 2015 Rise Set
Actual Time
Civil Twilight
Nautical Twilight
Astronomical Twilight
Moon
Length of Visible Light
Length of Day
Tomorrow will be .
, % of the Moon is Illuminated

Today's Extremes

State Highs State Lows

Community

WunderPhotos

Upload Photos

1,843,831 photos uploaded!

WunderBlogs® & News

Nearby

Air Quality

  Air Quality AQ Index Pollutant
Not available.

Snow Depth

Station Depth Elevation

Earthquake Activity

City Distance Mag. Time & Date
Minimum magnitude displayed is 2.5.

Coastal Water Temperatures

Place Temperature

Stations

Nearby Weather Stations

Station Location Temp. Windchill Dew Point Humidity Wind Precip. Elev Updated Type
                   
Fire Weather Warning
Statement as of 2:58 PM PDT on August 03, 2015

... Red flag warning in effect until 9 PM PDT Wednesday for wind
and low relative humidity for the Palouse region of southeast
Washington...

The National Weather Service in Spokane has issued a red
flag warning for wind and low relative humidity... which is in
effect until 9 PM PDT Wednesday.

* Affected area: fire weather zone 674 East Washington Palouse (zone
674).

* Winds: southwest 10 to 20 mph... with gusts around 30 mph.

* Relative humidities: 10 to 20 percent.

* Impacts: rapid fire spread is possible with any new or ongoing
fires.

Precautionary/preparedness actions...

A red flag warning means that critical fire weather conditions
are either occurring now... or will shortly. A combination of
strong winds... low relative humidity... and warm temperatures will
create extreme fire growth potential.